createdAt,value
2023-03-13T00:01:20.636Z,99478.33
2023-03-13T00:03:48.654Z,99479.69
2023-03-13T00:06:20.881Z,99481.05
2023-03-13T00:08:48.831Z,99484.83
2023-03-13T00:11:17.405Z,99479.50
2023-03-13T00:13:45.382Z,99485.48
2023-03-13T00:16:19.474Z,99484.99
2023-03-13T00:18:49.025Z,99485.84
2023-03-13T00:21:17.444Z,99482.91
2023-03-13T00:23:54.719Z,99484.95
2023-03-13T00:26:23.754Z,99481.86
2023-03-13T00:28:53.242Z,99490.24
2023-03-13T00:31:26.336Z,99496.25
2023-03-13T00:33:55.122Z,99493.18
2023-03-13T00:36:24.492Z,99494.88
2023-03-13T00:38:53.361Z,99498.13
2023-03-13T00:41:28.468Z,99490.40
2023-03-13T00:44:00.886Z,99497.61
2023-03-13T00:46:30.218Z,99500.70
2023-03-13T00:48:58.388Z,99505.67
2023-03-13T00:51:27.465Z,99506.52
2023-03-13T00:53:56.665Z,99505.67
2023-03-13T00:56:24.605Z,99506.69
2023-03-13T00:58:52.719Z,99503.24
2023-03-13T01:01:25.676Z,99499.30
2023-03-13T01:03:56.833Z,99494.16
2023-03-13T01:06:26.054Z,99494.33
2023-03-13T01:08:54.262Z,99490.52
2023-03-13T01:11:23.330Z,99499.27
2023-03-13T01:13:59.580Z,99499.95
2023-03-13T01:16:28.219Z,99493.61
2023-03-13T01:18:57.072Z,99496.88
2023-03-13T01:21:25.490Z,99493.77
2023-03-13T01:23:53.464Z,99495.34
2023-03-13T01:26:22.152Z,99492.24
2023-03-13T01:28:51.825Z,99495.48
2023-03-13T01:31:21.000Z,99495.80
2023-03-13T01:33:50.054Z,99499.93
2023-03-13T01:36:21.199Z,99503.89
2023-03-13T01:38:53.065Z,99512.42
2023-03-13T01:41:30.574Z,99515.85
2023-03-13T01:44:00.064Z,99520.84
2023-03-13T01:46:33.992Z,99524.93
2023-03-13T01:49:18.728Z,99532.17
2023-03-13T01:51:58.965Z,99538.52
2023-03-13T01:54:35.959Z,99541.23
2023-03-13T01:57:19.705Z,99546.20
2023-03-13T01:59:51.075Z,99550.84
2023-03-13T02:02:19.576Z,99551.71
2023-03-13T02:04:48.959Z,99556.17
2023-03-13T02:07:17.959Z,99558.11
2023-03-13T02:09:49.592Z,99566.52
2023-03-13T02:12:33.028Z,99570.46
2023-03-13T02:15:12.985Z,99569.07
2023-03-13T02:17:41.429Z,99570.95
2023-03-13T02:20:14.146Z,99574.70
2023-03-13T02:22:45.246Z,99578.14
2023-03-13T02:25:17.437Z,99578.48
2023-03-13T02:27:45.527Z,99579.50
2023-03-13T02:30:13.969Z,99582.08
2023-03-13T02:32:42.752Z,99580.35
2023-03-13T02:35:18.996Z,99580.70
2023-03-13T02:37:48.392Z,99579.33
2023-03-13T02:40:21.081Z,99579.64
2023-03-13T02:42:49.465Z,99583.41
2023-03-13T02:45:17.869Z,99585.81
2023-03-13T02:47:45.985Z,99595.58
2023-03-13T02:50:14.544Z,99593.67
2023-03-13T02:52:46.410Z,99593.35
2023-03-13T02:55:18.142Z,99590.95
2023-03-13T02:57:47.013Z,99596.95
2023-03-13T03:00:22.867Z,99597.81
2023-03-13T03:02:51.100Z,99605.02
2023-03-13T03:05:19.211Z,99605.88
2023-03-13T03:07:47.411Z,99605.86
2023-03-13T03:10:15.808Z,99603.81
2023-03-13T03:12:46.004Z,99606.19
2023-03-13T03:15:15.221Z,99603.96
2023-03-13T03:17:46.074Z,99606.88
2023-03-13T03:20:14.836Z,99610.48
2023-03-13T03:22:44.930Z,99609.61
2023-03-13T03:25:15.093Z,99615.95
2023-03-13T03:27:43.253Z,99616.64
2023-03-13T03:30:12.072Z,99618.70
2023-03-13T03:32:40.867Z,99627.10
2023-03-13T03:35:09.247Z,99633.62
2023-03-13T03:37:37.646Z,99636.85
2023-03-13T03:40:06.966Z,99640.45
2023-03-13T03:42:35.009Z,99645.55
2023-03-13T03:45:23.125Z,99653.10
2023-03-13T03:47:55.858Z,99658.77
2023-03-13T03:50:24.502Z,99658.97
2023-03-13T03:52:56.954Z,99659.31
2023-03-13T03:55:26.071Z,99665.14
2023-03-13T03:57:54.456Z,99670.59
2023-03-13T04:00:36.962Z,99674.70
2023-03-13T04:03:05.196Z,99676.42
2023-03-13T04:05:33.310Z,99682.73
2023-03-13T04:08:01.841Z,99680.45
2023-03-13T04:10:30.137Z,99679.69
2023-03-13T04:12:58.600Z,99684.08
2023-03-13T04:15:27.018Z,99683.35
2023-03-13T04:17:55.220Z,99689.33
2023-03-13T04:20:23.967Z,99691.90
2023-03-13T04:22:52.589Z,99693.78
2023-03-13T04:25:24.935Z,99699.23
2023-03-13T04:27:54.445Z,99701.26
2023-03-13T04:30:25.072Z,99698.35
2023-03-13T04:33:25.313Z,99702.00
2023-03-13T04:36:18.304Z,99706.64
2023-03-13T04:39:05.146Z,99707.66
2023-03-13T04:41:57.760Z,99709.21
2023-03-13T04:44:49.033Z,99716.44
2023-03-13T04:47:41.459Z,99721.27
2023-03-13T04:50:30.019Z,99722.66
2023-03-13T04:53:26.273Z,99727.48
2023-03-13T04:56:26.807Z,99727.50
2023-03-13T04:59:19.140Z,99731.13
2023-03-13T05:02:15.451Z,99739.05
2023-03-13T05:05:02.665Z,99740.30
2023-03-13T05:07:51.794Z,99741.73
2023-03-13T05:10:38.969Z,99744.69
2023-03-13T05:13:25.448Z,99748.30
2023-03-13T05:15:57.010Z,99746.44
2023-03-13T05:18:34.836Z,99747.98
2023-03-13T05:21:23.914Z,99746.16
2023-03-13T05:24:19.478Z,99750.33
2023-03-13T05:26:57.940Z,99753.62
2023-03-13T05:29:37.265Z,99756.59
2023-03-13T05:32:19.215Z,99762.30
2023-03-13T05:38:20.504Z,99769.05
2023-03-13T05:44:20.747Z,99780.39
2023-03-13T05:47:15.356Z,99784.83
2023-03-13T05:50:02.953Z,99784.66
2023-03-13T05:52:55.129Z,99787.76
2023-03-13T05:55:58.565Z,99792.56
2023-03-13T05:58:46.658Z,99794.42
2023-03-13T06:01:35.658Z,99799.56
2023-03-13T06:04:12.075Z,99803.00
2023-03-13T06:06:41.572Z,99803.98
2023-03-13T06:09:20.491Z,99802.91
2023-03-13T06:11:48.784Z,99806.22
2023-03-13T06:14:17.086Z,99805.44
2023-03-13T06:16:55.957Z,99805.46
2023-03-13T06:19:26.888Z,99805.98
2023-03-13T06:22:01.312Z,99811.95
2023-03-13T06:24:29.910Z,99812.86
2023-03-13T06:26:58.255Z,99814.48
2023-03-13T06:29:26.328Z,99815.11
2023-03-13T06:31:54.414Z,99818.50
2023-03-13T06:34:22.701Z,99816.54
2023-03-13T06:36:51.360Z,99813.05
2023-03-13T06:39:19.577Z,99806.37
2023-03-13T06:41:48.129Z,99802.98
2023-03-13T06:44:16.629Z,99807.55
2023-03-13T06:46:49.477Z,99807.67
2023-03-13T06:49:18.051Z,99808.55
2023-03-13T06:51:51.768Z,99817.89
2023-03-13T06:54:20.468Z,99819.81
2023-03-13T06:56:48.754Z,99827.73
2023-03-13T06:59:18.145Z,99828.91
2023-03-13T07:01:47.642Z,99833.62
2023-03-13T07:04:20.796Z,99835.77
2023-03-13T07:06:49.622Z,99833.31
2023-03-13T07:09:20.117Z,99833.42
2023-03-13T07:11:51.952Z,99836.37
2023-03-13T07:14:22.242Z,99833.12
2023-03-13T07:16:50.708Z,99836.58
2023-03-13T07:19:22.077Z,99838.17
2023-03-13T07:21:50.641Z,99839.86
2023-03-13T07:24:19.908Z,99837.88
2023-03-13T07:27:03.446Z,99837.18
2023-03-13T07:29:34.847Z,99835.60
2023-03-13T07:32:03.694Z,99834.21
2023-03-13T07:34:32.781Z,99836.61
2023-03-13T07:37:04.082Z,99837.45
2023-03-13T07:39:33.384Z,99840.54
2023-03-13T07:42:02.572Z,99836.28
2023-03-13T07:44:31.422Z,99835.97
2023-03-13T07:47:00.648Z,99837.59
2023-03-13T07:49:29.441Z,99834.63
2023-03-13T07:51:58.047Z,99837.08
2023-03-13T07:54:34.815Z,99832.19
2023-03-13T07:57:03.517Z,99841.54
2023-03-13T07:59:31.733Z,99842.09
2023-03-13T08:02:00.365Z,99835.10
2023-03-13T08:04:28.598Z,99832.91
2023-03-13T08:06:57.173Z,99835.59
2023-03-13T08:09:26.010Z,99833.29
2023-03-13T08:11:54.762Z,99833.56
2023-03-13T08:14:23.592Z,99837.33
2023-03-13T08:16:53.412Z,99834.45
2023-03-13T08:19:21.680Z,99839.43
2023-03-13T08:21:50.317Z,99843.48
2023-03-13T08:24:20.890Z,99844.36
2023-03-13T08:26:50.834Z,99852.26
2023-03-13T08:29:19.938Z,99854.71
2023-03-13T08:31:50.140Z,99856.77
2023-03-13T08:34:19.178Z,99852.83
2023-03-13T08:36:47.972Z,99854.59
2023-03-13T08:39:18.893Z,99851.60
2023-03-13T08:41:47.646Z,99852.30
2023-03-13T08:44:21.309Z,99855.20
2023-03-13T08:46:50.420Z,99858.46
2023-03-13T08:49:21.745Z,99861.42
2023-03-13T08:51:53.789Z,99860.95
2023-03-13T08:54:23.930Z,99856.55
2023-03-13T08:56:57.115Z,99856.28
2023-03-13T08:59:33.247Z,99853.78
2023-03-13T09:02:13.230Z,99845.35
2023-03-13T09:04:49.547Z,99838.44
2023-03-13T09:07:19.748Z,99835.82
2023-03-13T09:09:52.662Z,99836.27
2023-03-13T09:12:35.488Z,99838.30
2023-03-13T09:15:11.749Z,99836.10
2023-03-13T09:17:44.016Z,99829.86
2023-03-13T09:20:13.298Z,99827.97
2023-03-13T09:22:42.840Z,99826.74
2023-03-13T09:25:11.215Z,99828.19
2023-03-13T09:27:41.393Z,99832.23
2023-03-13T09:30:10.296Z,99836.27
2023-03-13T09:32:38.705Z,99830.59
2023-03-13T09:35:07.617Z,99828.09
2023-03-13T09:37:37.019Z,99824.23
2023-03-13T09:40:05.894Z,99824.46
2023-03-13T09:42:45.172Z,99824.86
2023-03-13T09:45:31.485Z,99822.38
2023-03-13T09:48:20.112Z,99827.29
2023-03-13T09:50:54.097Z,99823.56
2023-03-13T09:53:28.006Z,99822.00
2023-03-13T09:55:56.054Z,99818.91
2023-03-13T09:58:25.045Z,99816.63
2023-03-13T10:01:03.874Z,99814.79
2023-03-13T10:03:39.295Z,99811.56
2023-03-13T10:06:20.139Z,99805.84
2023-03-13T10:08:52.950Z,99799.98
2023-03-13T10:11:29.886Z,99797.27
2023-03-13T10:14:16.900Z,99792.61
2023-03-13T10:16:47.476Z,99783.38
2023-03-13T10:19:17.617Z,99781.47
2023-03-13T10:21:48.283Z,99785.32
2023-03-13T10:24:23.726Z,99777.23
2023-03-13T10:26:51.950Z,99781.94
2023-03-13T10:29:21.211Z,99775.14
2023-03-13T10:31:59.408Z,99768.14
2023-03-13T10:34:28.615Z,99770.55
2023-03-13T10:36:58.440Z,99770.23
2023-03-13T10:39:28.923Z,99764.71
2023-03-13T10:42:10.282Z,99762.80
2023-03-13T10:44:39.176Z,99758.15
2023-03-13T10:47:09.729Z,99758.30
2023-03-13T10:49:37.939Z,99758.73
2023-03-13T10:52:08.092Z,99758.89
2023-03-13T10:54:38.053Z,99764.98
2023-03-13T10:57:25.726Z,99756.80
2023-03-13T10:59:53.749Z,99750.34
2023-03-13T11:02:29.198Z,99752.08
2023-03-13T11:04:57.453Z,99733.83
2023-03-13T11:07:29.397Z,99731.02
2023-03-13T11:10:19.350Z,99724.75
2023-03-13T11:12:49.186Z,99723.67
2023-03-13T11:15:26.257Z,99715.88
2023-03-13T11:18:05.553Z,99707.90
2023-03-13T11:20:35.256Z,99707.11
2023-03-13T11:23:11.581Z,99701.70
2023-03-13T11:25:40.458Z,99695.73
2023-03-13T11:28:19.187Z,99691.07
2023-03-13T11:31:14.695Z,99689.00
2023-03-13T11:33:45.735Z,99686.23
2023-03-13T11:36:25.827Z,99685.44
2023-03-13T11:39:13.089Z,99682.66
2023-03-13T11:42:01.286Z,99683.42
2023-03-13T11:44:44.743Z,99683.39
2023-03-13T11:47:16.172Z,99679.66
2023-03-13T11:49:52.386Z,99672.59
2023-03-13T11:52:21.055Z,99674.02
2023-03-13T11:54:49.144Z,99668.14
2023-03-13T11:57:19.234Z,99672.43
2023-03-13T11:59:57.520Z,99668.52
2023-03-13T12:02:25.847Z,99662.40
2023-03-13T12:05:01.553Z,99666.25
2023-03-13T12:07:32.466Z,99662.08
2023-03-13T12:10:01.824Z,99655.52
2023-03-13T12:12:36.167Z,99654.66
2023-03-13T12:15:06.949Z,99651.41
2023-03-13T12:17:40.074Z,99651.87
2023-03-13T12:20:11.989Z,99647.72
2023-03-13T12:22:46.346Z,99648.23
2023-03-13T12:25:18.475Z,99647.61
2023-03-13T12:27:47.817Z,99647.55
2023-03-13T12:30:18.644Z,99645.91
2023-03-13T12:32:54.597Z,99641.13
2023-03-13T12:35:26.174Z,99634.66
2023-03-13T12:37:54.584Z,99633.93
2023-03-13T12:40:31.531Z,99631.34
2023-03-13T12:43:19.506Z,99638.52
2023-03-13T12:45:57.099Z,99636.83
2023-03-13T12:48:31.638Z,99644.30
2023-03-13T12:51:03.250Z,99644.84
2023-03-13T12:53:35.553Z,99644.64
2023-03-13T12:56:03.623Z,99646.50
2023-03-13T12:58:38.260Z,99644.11
2023-03-13T13:01:07.230Z,99642.48
2023-03-13T13:03:39.294Z,99640.41
2023-03-13T13:06:09.422Z,99640.35
2023-03-13T13:08:44.148Z,99636.05
2023-03-13T13:11:30.862Z,99629.65
2023-03-13T13:14:02.876Z,99626.86
2023-03-13T13:16:34.051Z,99625.03
2023-03-13T13:19:21.822Z,99622.91
2023-03-13T13:22:18.024Z,99619.17
2023-03-13T13:24:53.507Z,99626.86
2023-03-13T13:27:30.178Z,99623.90
2023-03-13T13:29:59.667Z,99621.02
2023-03-13T13:32:38.471Z,99619.14
2023-03-13T13:35:19.074Z,99609.60
2023-03-13T13:37:49.505Z,99603.80
2023-03-13T13:40:18.384Z,99601.23
2023-03-13T13:42:47.141Z,99595.39
2023-03-13T13:45:15.782Z,99593.27
2023-03-13T13:47:44.987Z,99591.90
2023-03-13T13:50:18.189Z,99585.48
2023-03-13T13:52:50.452Z,99580.61
2023-03-13T13:55:30.793Z,99580.20
2023-03-13T13:58:01.040Z,99581.06
2023-03-13T14:00:46.291Z,99581.34
2023-03-13T14:03:24.692Z,99580.94
2023-03-13T14:06:01.784Z,99583.16
2023-03-13T14:08:31.016Z,99586.70
2023-03-13T14:11:08.202Z,99585.41
2023-03-13T14:13:49.104Z,99592.48
2023-03-13T14:16:28.778Z,99598.20
2023-03-13T14:19:00.515Z,99600.34
2023-03-13T14:21:31.616Z,99594.95
2023-03-13T14:24:24.354Z,99592.35
2023-03-13T14:26:53.018Z,99591.16
2023-03-13T14:29:27.675Z,99589.69
2023-03-13T14:31:58.119Z,99587.35
2023-03-13T14:34:32.751Z,99580.21
2023-03-13T14:37:17.782Z,99575.38
2023-03-13T14:39:50.579Z,99572.48
2023-03-13T14:42:19.318Z,99569.64
2023-03-13T14:44:49.357Z,99570.77
2023-03-13T14:47:18.251Z,99567.66
2023-03-13T14:49:46.798Z,99558.07
2023-03-13T14:52:23.865Z,99551.88
2023-03-13T14:54:54.086Z,99550.36
2023-03-13T14:57:26.016Z,99553.51
2023-03-13T14:59:55.829Z,99550.25
2023-03-13T15:02:24.558Z,99551.21
2023-03-13T15:04:56.467Z,99547.45
2023-03-13T15:07:25.178Z,99540.52
2023-03-13T15:09:53.658Z,99538.35
2023-03-13T15:12:22.718Z,99536.00
2023-03-13T15:14:51.505Z,99531.73
2023-03-13T15:17:27.021Z,99527.61
2023-03-13T15:19:56.208Z,99520.73
2023-03-13T15:22:35.311Z,99515.72
2023-03-13T15:25:07.361Z,99513.52
2023-03-13T15:27:36.330Z,99512.35
2023-03-13T15:30:19.653Z,99510.14
2023-03-13T15:32:49.999Z,99517.80
2023-03-13T15:35:18.465Z,99525.83
2023-03-13T15:37:46.685Z,99527.10
2023-03-13T15:40:15.517Z,99527.13
2023-03-13T15:42:48.868Z,99530.95
2023-03-13T15:45:17.178Z,99526.79
2023-03-13T15:47:45.363Z,99533.23
2023-03-13T15:50:14.415Z,99534.30
2023-03-13T15:52:42.507Z,99533.27
2023-03-13T15:55:16.502Z,99529.14
2023-03-13T15:57:47.389Z,99524.64
2023-03-13T16:00:26.557Z,99525.30
2023-03-13T16:02:55.518Z,99527.38
2023-03-13T16:05:23.602Z,99528.27
2023-03-13T16:07:55.673Z,99523.41
2023-03-13T16:10:27.942Z,99520.14
2023-03-13T16:13:00.104Z,99521.53
2023-03-13T16:15:31.148Z,99518.91
2023-03-13T16:17:59.553Z,99515.08
2023-03-13T16:20:30.631Z,99514.25
2023-03-13T16:22:58.801Z,99513.73
2023-03-13T16:25:26.774Z,99509.56
2023-03-13T16:27:56.438Z,99505.94
2023-03-13T16:30:31.767Z,99505.46
2023-03-13T16:33:04.127Z,99506.92
2023-03-13T16:35:33.076Z,99507.77
2023-03-13T16:38:02.529Z,99505.31
2023-03-13T16:40:33.468Z,99503.42
2023-03-13T16:43:01.526Z,99501.55
2023-03-13T16:45:30.887Z,99501.73
2023-03-13T16:48:00.112Z,99499.17
2023-03-13T16:50:33.633Z,99497.64
2023-03-13T16:53:02.443Z,99497.64
2023-03-13T16:55:36.466Z,99493.54
2023-03-13T16:58:10.993Z,99491.46
2023-03-13T17:00:40.878Z,99493.35
2023-03-13T17:03:21.388Z,99489.06
2023-03-13T17:05:49.810Z,99482.64
2023-03-13T17:08:19.691Z,99489.23
2023-03-13T17:10:48.891Z,99489.41
2023-03-13T17:13:23.540Z,99484.39
2023-03-13T17:15:53.821Z,99484.25
2023-03-13T17:18:25.002Z,99486.50
2023-03-13T17:20:53.145Z,99487.03
2023-03-13T17:23:24.418Z,99483.25
2023-03-13T17:25:55.305Z,99479.60
2023-03-13T17:28:23.950Z,99468.35
2023-03-13T17:30:51.974Z,99465.15
2023-03-13T17:33:20.290Z,99461.58
2023-03-13T17:35:48.783Z,99466.48
2023-03-13T17:38:17.174Z,99469.15
2023-03-13T17:40:45.312Z,99475.16
2023-03-13T17:43:14.675Z,99476.09
2023-03-13T17:45:42.602Z,99480.12
2023-03-13T17:48:12.146Z,99478.27
2023-03-13T17:50:40.360Z,99480.71
2023-03-13T17:53:09.624Z,99483.02
2023-03-13T17:55:37.737Z,99476.99
2023-03-13T17:58:05.885Z,99477.38
2023-03-13T18:00:35.206Z,99481.36
2023-03-13T18:03:03.577Z,99482.10
2023-03-13T18:05:31.846Z,99477.11
2023-03-13T18:08:00.209Z,99474.55
2023-03-13T18:10:30.262Z,99478.04
2023-03-13T18:12:58.617Z,99473.94
2023-03-13T18:15:27.135Z,99468.94
2023-03-13T18:18:03.022Z,99467.56
2023-03-13T18:20:31.866Z,99469.86
2023-03-13T18:23:00.916Z,99468.89
2023-03-13T18:25:32.254Z,99467.81
2023-03-13T18:28:01.641Z,99467.83
2023-03-13T18:30:33.752Z,99467.48
2023-03-13T18:33:01.971Z,99464.91
2023-03-13T18:35:32.391Z,99460.25
2023-03-13T18:38:08.552Z,99459.03
2023-03-13T18:40:36.626Z,99461.11
2023-03-13T18:43:07.815Z,99455.58
2023-03-13T18:45:38.691Z,99455.27
2023-03-13T18:48:09.607Z,99453.42
2023-03-13T18:50:37.763Z,99449.52
2023-03-13T18:53:05.866Z,99448.23
2023-03-13T18:55:34.317Z,99444.15
2023-03-13T18:58:02.323Z,99437.46
2023-03-13T19:00:30.960Z,99434.61
2023-03-13T19:02:59.712Z,99430.69
2023-03-13T19:05:29.858Z,99430.75
2023-03-13T19:08:03.380Z,99435.99
2023-03-13T19:10:32.820Z,99436.70
2023-03-13T19:13:06.160Z,99433.25
2023-03-13T19:15:36.211Z,99430.30
2023-03-13T19:18:04.282Z,99435.17
2023-03-13T19:20:33.049Z,99436.23
2023-03-13T19:23:01.533Z,99434.55
2023-03-13T19:25:30.102Z,99434.94
2023-03-13T19:28:00.384Z,99435.11
2023-03-13T19:30:28.420Z,99435.35
2023-03-13T19:32:57.601Z,99435.73
2023-03-13T19:35:26.384Z,99430.58
2023-03-13T19:37:54.325Z,99434.75
2023-03-13T19:40:23.545Z,99431.49
2023-03-13T19:42:51.451Z,99433.27
2023-03-13T19:45:25.573Z,99434.88
2023-03-13T19:47:54.213Z,99435.09
2023-03-13T19:50:27.885Z,99430.09
2023-03-13T19:53:04.763Z,99429.61
2023-03-13T19:55:56.721Z,99426.52
2023-03-13T19:58:25.127Z,99427.23
2023-03-13T20:00:58.849Z,99425.23
2023-03-13T20:03:29.448Z,99416.25
2023-03-13T20:06:00.912Z,99418.02
2023-03-13T20:08:32.947Z,99415.81
2023-03-13T20:11:08.511Z,99415.85
2023-03-13T20:16:38.853Z,99410.68
2023-03-13T20:19:12.753Z,99413.13
2023-03-13T20:21:53.349Z,99413.00
2023-03-13T20:24:24.899Z,99410.73
2023-03-13T20:27:02.056Z,99407.98
2023-03-13T20:29:32.143Z,99407.84
2023-03-13T20:32:04.805Z,99408.71
2023-03-13T20:34:36.590Z,99410.98
2023-03-13T20:37:07.268Z,99406.85
2023-03-13T20:39:37.513Z,99408.75
2023-03-13T20:42:07.625Z,99412.23
2023-03-13T20:44:35.794Z,99406.39
2023-03-13T20:47:03.992Z,99402.25
2023-03-13T20:49:32.366Z,99403.66
2023-03-13T20:52:00.667Z,99406.09
2023-03-13T20:54:29.120Z,99410.64
2023-03-13T20:57:02.479Z,99412.56
2023-03-13T20:59:32.048Z,99415.86
2023-03-13T21:02:00.449Z,99415.73
2023-03-13T21:04:28.654Z,99418.20
2023-03-13T21:07:04.679Z,99419.23
2023-03-13T21:09:36.659Z,99415.79
2023-03-13T21:12:05.364Z,99413.02
2023-03-13T21:14:35.175Z,99418.08
2023-03-13T21:17:05.943Z,99410.52
2023-03-13T21:19:37.352Z,99413.84
2023-03-13T21:22:05.535Z,99412.11
2023-03-13T21:24:37.273Z,99412.48
2023-03-13T21:27:05.582Z,99411.29
2023-03-13T21:29:37.550Z,99411.45
2023-03-13T21:32:06.747Z,99413.69
2023-03-13T21:34:34.676Z,99412.63
2023-03-13T21:37:02.654Z,99416.75
2023-03-13T21:39:31.603Z,99419.17
2023-03-13T21:42:00.125Z,99419.49
2023-03-13T21:44:28.333Z,99417.26
2023-03-13T21:46:56.460Z,99415.14
2023-03-13T21:49:24.994Z,99402.05
2023-03-13T21:51:52.998Z,99400.49
2023-03-13T21:54:23.566Z,99408.96
2023-03-13T21:56:52.511Z,99409.46
2023-03-13T21:59:21.967Z,99408.77
2023-03-13T22:01:50.246Z,99412.88
2023-03-13T22:04:18.120Z,99413.70
2023-03-13T22:06:47.825Z,99411.09
2023-03-13T22:09:16.240Z,99407.08
2023-03-13T22:11:47.356Z,99409.52
2023-03-13T22:14:16.978Z,99408.10
2023-03-13T22:16:44.936Z,99407.05
2023-03-13T22:19:17.458Z,99419.69
2023-03-13T22:21:47.260Z,99417.42
2023-03-13T22:24:18.378Z,99407.23
2023-03-13T22:26:47.179Z,99407.44
2023-03-13T22:29:15.485Z,99404.15
2023-03-13T22:31:51.262Z,99402.96
2023-03-13T22:34:19.736Z,99407.75
2023-03-13T22:36:47.956Z,99409.45
2023-03-13T22:39:17.326Z,99398.91
2023-03-13T22:41:45.557Z,99395.08
2023-03-13T22:44:14.016Z,99393.70
2023-03-13T22:46:42.376Z,99388.15
2023-03-13T22:49:15.274Z,99389.85
2023-03-13T22:51:44.130Z,99388.29
2023-03-13T22:54:12.896Z,99382.40
2023-03-13T22:56:41.485Z,99373.95
2023-03-13T22:59:09.638Z,99370.66
2023-03-13T23:01:38.849Z,99370.15
2023-03-13T23:04:07.036Z,99367.59
2023-03-13T23:06:35.176Z,99366.35
2023-03-13T23:09:03.626Z,99363.08
2023-03-13T23:11:32.426Z,99366.73
2023-03-13T23:14:00.799Z,99367.23
2023-03-13T23:16:29.123Z,99362.22
2023-03-13T23:18:57.056Z,99361.33
2023-03-13T23:21:27.696Z,99357.72
2023-03-13T23:23:55.869Z,99356.67
2023-03-13T23:26:23.883Z,99355.67
2023-03-13T23:28:51.885Z,99355.67
2023-03-13T23:31:21.096Z,99353.80
2023-03-13T23:33:53.143Z,99354.99
2023-03-13T23:36:21.237Z,99351.41
2023-03-13T23:38:49.536Z,99348.30
2023-03-13T23:41:17.537Z,99348.98
2023-03-13T23:43:45.424Z,99347.44
2023-03-13T23:46:20.192Z,99350.05
2023-03-13T23:48:51.949Z,99350.39
2023-03-13T23:51:24.570Z,99349.54
2023-03-13T23:53:52.809Z,99348.84
2023-03-13T23:56:20.872Z,99340.02
2023-03-13T23:58:55.298Z,99340.73
